createdAt,value
2017-12-10T00:01:20.120Z,10.35
2017-12-10T00:03:47.953Z,10.68
2017-12-10T00:06:15.388Z,12.00
2017-12-10T00:08:42.928Z,11.05
2017-12-10T00:11:10.360Z,12.25
2017-12-10T00:13:37.792Z,12.20
2017-12-10T00:16:05.797Z,11.85
2017-12-10T00:18:33.224Z,9.75
2017-12-10T00:21:00.652Z,10.25
2017-12-10T00:23:28.113Z,11.68
2017-12-10T00:25:55.536Z,8.57
2017-12-10T00:28:22.974Z,8.15
2017-12-10T00:30:50.411Z,13.68
2017-12-10T00:33:17.846Z,14.90
2017-12-10T00:35:45.676Z,14.20
2017-12-10T00:38:13.132Z,13.02
2017-12-10T00:40:40.568Z,10.77
2017-12-10T00:43:08.000Z,14.27
2017-12-10T00:45:35.780Z,13.55
2017-12-10T00:48:03.208Z,13.75
2017-12-10T00:50:30.644Z,11.02
2017-12-10T00:52:58.488Z,11.93
2017-12-10T00:55:25.920Z,11.57
2017-12-10T00:57:53.356Z,13.15
2017-12-10T01:00:20.805Z,12.93
2017-12-10T01:02:48.236Z,11.88
2017-12-10T01:05:15.668Z,13.00
2017-12-10T01:07:43.284Z,11.52
2017-12-10T01:10:10.721Z,11.82
2017-12-10T01:12:38.152Z,13.30
2017-12-10T01:15:06.000Z,15.07
2017-12-10T01:17:33.431Z,11.82
2017-12-10T01:20:00.862Z,14.45
2017-12-10T01:22:28.529Z,11.95
2017-12-10T01:24:55.961Z,13.15
2017-12-10T01:27:23.396Z,12.50
2017-12-10T01:29:51.611Z,17.33
2017-12-10T01:32:19.049Z,14.18
2017-12-10T01:34:46.475Z,14.18
2017-12-10T01:37:14.316Z,17.02
2017-12-10T01:39:41.749Z,14.65
2017-12-10T01:42:09.184Z,14.57
2017-12-10T01:44:36.780Z,12.70
2017-12-10T01:47:04.218Z,14.20
2017-12-10T01:49:31.652Z,14.98
2017-12-10T01:51:59.093Z,15.70
2017-12-10T01:54:26.524Z,13.77
2017-12-10T01:56:54.536Z,14.65
2017-12-10T01:59:21.976Z,15.95
2017-12-10T02:01:49.409Z,13.10
2017-12-10T02:04:17.244Z,16.08
2017-12-10T02:06:44.674Z,14.87
2017-12-10T02:09:12.213Z,17.87
2017-12-10T02:11:39.639Z,14.18
2017-12-10T02:14:07.820Z,13.35
2017-12-10T02:16:35.282Z,11.15
2017-12-10T02:19:02.707Z,14.60
2017-12-10T02:21:30.542Z,15.02
2017-12-10T02:23:57.993Z,15.98
2017-12-10T02:26:25.427Z,14.65
2017-12-10T02:28:52.852Z,15.55
2017-12-10T02:31:20.307Z,11.45
2017-12-10T02:33:47.739Z,14.98
2017-12-10T02:36:15.185Z,11.00
2017-12-10T02:38:42.612Z,15.82
2017-12-10T02:41:10.045Z,14.10
2017-12-10T02:43:37.472Z,13.48
2017-12-10T02:46:05.313Z,11.48
2017-12-10T02:48:32.744Z,15.05
2017-12-10T02:51:00.171Z,14.45
2017-12-10T02:53:27.632Z,14.07
2017-12-10T02:55:55.056Z,15.32
2017-12-10T02:58:22.487Z,15.50
2017-12-10T03:00:50.212Z,14.07
2017-12-10T03:03:17.649Z,11.32
2017-12-10T03:05:45.080Z,15.02
2017-12-10T03:08:13.218Z,14.40
2017-12-10T03:10:40.648Z,15.52
2017-12-10T03:13:08.085Z,16.42
2017-12-10T03:15:35.528Z,16.02
2017-12-10T03:18:02.956Z,14.90
2017-12-10T03:20:30.780Z,14.25
2017-12-10T03:22:58.536Z,13.02
2017-12-10T03:25:25.969Z,15.35
2017-12-10T03:27:53.448Z,12.57
2017-12-10T03:30:20.904Z,15.93
2017-12-10T03:32:48.337Z,14.43
2017-12-10T03:35:15.865Z,16.40
2017-12-10T03:37:43.319Z,12.63
2017-12-10T03:40:10.692Z,14.32
2017-12-10T03:42:38.124Z,15.82
2017-12-10T03:45:06.346Z,16.67
2017-12-10T03:47:33.784Z,13.23
2017-12-10T03:50:01.208Z,12.60
2017-12-10T03:52:29.049Z,12.05
2017-12-10T03:54:56.476Z,13.18
2017-12-10T03:57:23.908Z,16.20
2017-12-10T03:59:51.597Z,12.80
2017-12-10T04:02:19.023Z,14.00
2017-12-10T04:04:46.458Z,20.20
2017-12-10T04:07:14.296Z,13.02
2017-12-10T04:09:41.731Z,13.00
2017-12-10T04:12:09.171Z,12.30
2017-12-10T04:14:36.855Z,13.13
2017-12-10T04:17:04.294Z,15.60
2017-12-10T04:19:31.720Z,13.80
2017-12-10T04:21:59.176Z,13.32
2017-12-10T04:24:26.659Z,16.62
2017-12-10T04:26:54.087Z,16.30
2017-12-10T04:29:21.545Z,12.90
2017-12-10T04:31:48.980Z,14.98
2017-12-10T04:34:16.805Z,15.95
2017-12-10T04:36:44.250Z,12.27
2017-12-10T04:39:11.688Z,13.88
2017-12-10T04:41:39.123Z,12.37
2017-12-10T04:44:06.555Z,14.90
2017-12-10T04:46:34.380Z,13.32
2017-12-10T04:49:01.813Z,14.48
2017-12-10T04:51:29.254Z,10.80
2017-12-10T04:53:56.685Z,12.98
2017-12-10T04:56:24.536Z,13.07
2017-12-10T04:58:51.962Z,14.05
2017-12-10T05:01:19.387Z,10.60
2017-12-10T05:03:46.821Z,13.00
2017-12-10T05:06:14.643Z,11.98
2017-12-10T05:08:42.103Z,12.98
2017-12-10T05:11:09.536Z,11.35
2017-12-10T05:13:36.968Z,14.20
2017-12-10T05:16:04.416Z,11.48
2017-12-10T05:18:31.844Z,10.82
2017-12-10T05:20:59.278Z,16.40
2017-12-10T05:23:26.720Z,11.07
2017-12-10T05:25:54.152Z,13.70
2017-12-10T05:28:21.580Z,13.57
2017-12-10T05:30:49.124Z,11.73
2017-12-10T05:33:16.953Z,13.98
2017-12-10T05:35:44.385Z,13.85
2017-12-10T05:38:11.838Z,15.27
2017-12-10T05:40:39.272Z,14.13
2017-12-10T05:43:06.704Z,16.12
2017-12-10T05:45:34.161Z,14.00
2017-12-10T05:48:01.992Z,14.23
2017-12-10T05:50:29.429Z,13.85
2017-12-10T05:52:56.875Z,15.27
2017-12-10T05:55:24.313Z,16.83
2017-12-10T05:57:51.739Z,15.23
2017-12-10T06:00:19.568Z,14.18
2017-12-10T06:02:47.005Z,14.43
2017-12-10T06:05:14.769Z,15.23
2017-12-10T06:07:42.204Z,16.92
2017-12-10T06:10:09.637Z,14.93
2017-12-10T06:12:37.568Z,14.70
2017-12-10T06:15:05.007Z,14.75
2017-12-10T06:17:32.431Z,13.93
2017-12-10T06:20:00.023Z,16.17
2017-12-10T06:22:27.465Z,13.77
2017-12-10T06:24:54.887Z,14.80
2017-12-10T06:27:22.745Z,13.95
2017-12-10T06:29:50.576Z,15.13
2017-12-10T06:32:18.008Z,17.25
2017-12-10T06:34:45.600Z,14.68
2017-12-10T06:37:13.095Z,14.43
2017-12-10T06:39:40.460Z,15.50
2017-12-10T06:42:07.897Z,16.05
2017-12-10T06:44:35.357Z,16.25
2017-12-10T06:47:02.779Z,15.80
2017-12-10T06:49:30.209Z,15.32
2017-12-10T06:51:57.753Z,16.85
2017-12-10T06:54:25.174Z,15.35
2017-12-10T06:56:52.600Z,16.73
2017-12-10T06:59:20.044Z,16.05
2017-12-10T07:01:47.468Z,14.98
2017-12-10T07:04:14.900Z,15.95
2017-12-10T07:06:42.331Z,15.38
2017-12-10T07:09:10.180Z,15.43
2017-12-10T07:11:37.617Z,15.30
2017-12-10T07:14:05.046Z,15.10
2017-12-10T07:16:32.499Z,14.45
2017-12-10T07:18:59.932Z,15.35
2017-12-10T07:21:27.366Z,13.45
2017-12-10T07:23:55.192Z,13.68
2017-12-10T07:26:22.620Z,13.60
2017-12-10T07:28:50.082Z,13.32
2017-12-10T07:31:17.512Z,16.85
2017-12-10T07:33:44.944Z,14.98
2017-12-10T07:36:12.652Z,14.90
2017-12-10T07:38:40.089Z,14.13
2017-12-10T07:41:07.521Z,11.93
2017-12-10T07:43:36.180Z,15.45
2017-12-10T07:46:03.607Z,14.87
2017-12-10T07:48:31.040Z,13.85
2017-12-10T07:50:58.829Z,15.38
2017-12-10T07:53:26.255Z,14.85
2017-12-10T07:55:53.688Z,14.77
2017-12-10T07:58:21.543Z,13.55
2017-12-10T08:00:48.980Z,15.52
2017-12-10T08:03:16.408Z,15.07
2017-12-10T08:05:43.856Z,13.18
2017-12-10T08:08:11.292Z,16.95
2017-12-10T08:10:38.721Z,14.10
2017-12-10T08:13:06.744Z,12.40
2017-12-10T08:15:34.176Z,13.98
2017-12-10T08:18:01.604Z,13.05
2017-12-10T08:20:29.444Z,12.32
2017-12-10T08:22:56.872Z,13.10
2017-12-10T08:25:24.327Z,13.13
2017-12-10T08:27:51.893Z,13.55
2017-12-10T08:30:19.328Z,14.00
2017-12-10T08:32:46.758Z,12.07
2017-12-10T08:35:14.457Z,12.10
2017-12-10T08:37:41.888Z,12.60
2017-12-10T08:40:09.359Z,13.02
2017-12-10T08:42:36.829Z,11.75
2017-12-10T08:45:04.244Z,11.98
2017-12-10T08:47:31.677Z,13.85
2017-12-10T08:49:59.688Z,10.75
2017-12-10T08:52:27.124Z,15.35
2017-12-10T08:54:54.560Z,13.75
2017-12-10T08:57:22.414Z,11.40
2017-12-10T08:59:49.840Z,13.23
2017-12-10T09:02:17.276Z,12.30
2017-12-10T09:04:44.712Z,11.15
2017-12-10T09:07:12.146Z,14.50
2017-12-10T09:09:40.281Z,13.27
2017-12-10T09:12:07.716Z,14.50
2017-12-10T09:14:35.163Z,13.93
2017-12-10T09:17:02.620Z,13.55
2017-12-10T09:19:30.076Z,13.30
2017-12-10T09:21:57.509Z,12.10
2017-12-10T09:24:24.949Z,11.80
2017-12-10T09:26:52.393Z,13.02
2017-12-10T09:29:20.300Z,14.85
2017-12-10T09:31:47.736Z,14.00
2017-12-10T09:34:15.220Z,11.40
2017-12-10T09:36:42.671Z,11.18
2017-12-10T09:39:10.224Z,9.82
2017-12-10T09:41:37.661Z,11.27
2017-12-10T09:44:05.086Z,9.85
2017-12-10T09:46:33.075Z,11.90
2017-12-10T09:49:00.509Z,11.55
2017-12-10T09:51:28.332Z,9.13
2017-12-10T09:53:55.776Z,8.93
2017-12-10T09:56:23.207Z,8.95
2017-12-10T09:58:50.640Z,9.57
2017-12-10T10:01:18.461Z,8.50
2017-12-10T10:03:45.909Z,7.82
2017-12-10T10:06:13.356Z,7.12
2017-12-10T10:08:40.792Z,10.50
2017-12-10T10:11:08.230Z,8.77
2017-12-10T10:13:36.069Z,9.30
2017-12-10T10:16:03.497Z,9.05
2017-12-10T10:18:30.936Z,8.70
2017-12-10T10:20:58.644Z,6.82
2017-12-10T10:23:26.105Z,8.40
2017-12-10T10:25:53.930Z,9.63
2017-12-10T10:28:21.583Z,7.60
2017-12-10T10:30:49.014Z,7.55
2017-12-10T10:33:16.440Z,7.12
2017-12-10T10:35:44.280Z,7.80
2017-12-10T10:38:11.811Z,7.95
2017-12-10T10:40:39.269Z,7.68
2017-12-10T10:43:06.724Z,8.10
2017-12-10T10:45:34.152Z,7.50
2017-12-10T10:48:02.016Z,7.80
2017-12-10T10:50:29.498Z,7.65
2017-12-10T10:52:56.909Z,8.38
2017-12-10T10:55:24.728Z,6.90
2017-12-10T10:57:52.168Z,6.12
2017-12-10T11:00:19.619Z,6.40
2017-12-10T11:02:47.044Z,7.05
2017-12-10T11:05:14.864Z,7.03
2017-12-10T11:07:42.312Z,7.40
2017-12-10T11:10:09.747Z,5.90
2017-12-10T11:12:37.172Z,5.85
2017-12-10T11:15:05.005Z,5.80
2017-12-10T11:17:32.438Z,7.35
2017-12-10T11:19:59.870Z,6.65
2017-12-10T11:22:27.329Z,6.72
2017-12-10T11:24:54.756Z,7.05
2017-12-10T11:27:22.572Z,6.25
2017-12-10T11:29:50.027Z,7.55
2017-12-10T11:32:17.458Z,8.82
2017-12-10T11:34:44.885Z,6.50
2017-12-10T11:37:12.315Z,7.45
2017-12-10T11:39:40.148Z,7.25
2017-12-10T11:42:07.592Z,6.65
2017-12-10T11:44:35.042Z,7.22
2017-12-10T11:47:02.444Z,6.55
2017-12-10T11:49:30.380Z,7.25
2017-12-10T11:51:57.815Z,6.65
2017-12-10T11:54:25.250Z,7.12
2017-12-10T11:56:52.713Z,8.15
2017-12-10T11:59:20.137Z,7.30
2017-12-10T12:01:47.961Z,7.47
2017-12-10T12:04:15.717Z,7.35
2017-12-10T12:06:43.141Z,6.43
2017-12-10T12:09:10.626Z,6.65
2017-12-10T12:11:38.174Z,6.45
2017-12-10T12:14:05.584Z,7.00
2017-12-10T12:16:33.411Z,6.72
2017-12-10T12:19:00.859Z,7.55
2017-12-10T12:21:28.311Z,7.65
2017-12-10T12:23:56.430Z,11.35
2017-12-10T12:26:24.420Z,7.28
2017-12-10T12:28:51.849Z,6.90
2017-12-10T12:31:19.672Z,6.55
2017-12-10T12:33:47.125Z,6.25
2017-12-10T12:36:14.549Z,5.93
2017-12-10T12:38:42.032Z,7.15
2017-12-10T12:41:09.480Z,5.32
2017-12-10T12:43:36.908Z,6.03
2017-12-10T12:46:04.399Z,5.68
2017-12-10T12:48:32.157Z,6.60
2017-12-10T12:50:59.589Z,5.70
2017-12-10T12:53:27.015Z,6.20
2017-12-10T12:55:54.952Z,6.97
2017-12-10T12:58:22.384Z,6.03
2017-12-10T13:00:49.846Z,6.50
2017-12-10T13:03:17.456Z,5.90
2017-12-10T13:05:45.284Z,5.55
2017-12-10T13:08:12.854Z,6.72
2017-12-10T13:10:40.641Z,7.20
2017-12-10T13:13:08.461Z,6.03
2017-12-10T13:15:36.102Z,6.30
2017-12-10T13:18:04.088Z,7.10
2017-12-10T13:20:31.515Z,7.30
2017-12-10T13:22:59.908Z,7.80
2017-12-10T13:25:27.340Z,7.62
2017-12-10T13:27:54.776Z,7.10
2017-12-10T13:30:22.616Z,7.57
2017-12-10T13:32:50.049Z,7.55
2017-12-10T13:35:17.520Z,7.47
2017-12-10T13:37:44.940Z,7.40
2017-12-10T13:40:12.373Z,7.40
2017-12-10T13:42:39.834Z,7.80
2017-12-10T13:47:41.668Z,6.85
2017-12-10T13:50:09.105Z,7.20
2017-12-10T13:52:36.537Z,7.95
2017-12-10T13:55:04.312Z,10.52
2017-12-10T13:57:31.747Z,7.93
2017-12-10T13:59:59.181Z,8.65
2017-12-10T14:02:26.972Z,7.10
2017-12-10T14:04:54.405Z,7.05
2017-12-10T14:07:21.837Z,7.35
2017-12-10T14:09:49.535Z,8.05
2017-12-10T14:12:16.960Z,7.43
2017-12-10T14:14:44.393Z,7.90
2017-12-10T14:17:13.130Z,9.20
2017-12-10T14:19:41.551Z,8.77
2017-12-10T14:22:08.978Z,7.68
2017-12-10T14:24:36.424Z,9.00
2017-12-10T14:27:03.861Z,7.57
2017-12-10T14:29:31.296Z,8.15
2017-12-10T14:31:59.192Z,7.70
2017-12-10T14:34:26.630Z,7.85
2017-12-10T14:36:54.060Z,18.60
2017-12-10T14:39:21.901Z,7.90
2017-12-10T14:41:49.336Z,8.05
2017-12-10T14:44:16.769Z,8.02
2017-12-10T14:46:44.440Z,7.90
2017-12-10T14:49:11.892Z,7.35
2017-12-10T14:51:39.323Z,8.00
2017-12-10T14:54:06.780Z,8.75
2017-12-10T14:56:34.200Z,36.67
2017-12-10T14:59:01.641Z,7.22
2017-12-10T15:01:30.005Z,7.35
2017-12-10T15:03:57.437Z,8.02
2017-12-10T15:06:24.871Z,8.30
2017-12-10T15:08:52.468Z,8.25
2017-12-10T15:11:19.910Z,8.23
2017-12-10T15:13:47.328Z,7.18
2017-12-10T15:16:15.441Z,7.45
2017-12-10T15:18:42.884Z,8.80
2017-12-10T15:21:10.300Z,8.00
2017-12-10T15:23:38.334Z,6.93
2017-12-10T15:26:05.774Z,7.65
2017-12-10T15:28:33.202Z,8.55
2017-12-10T15:31:00.636Z,7.47
2017-12-10T15:33:28.460Z,7.50
2017-12-10T15:35:55.888Z,7.85
2017-12-10T15:38:23.448Z,7.40
2017-12-10T15:40:50.876Z,7.40
2017-12-10T15:43:18.301Z,7.00
2017-12-10T15:45:45.736Z,7.62
2017-12-10T15:48:13.176Z,7.50
2017-12-10T15:50:40.780Z,8.63
2017-12-10T15:53:08.604Z,7.82
2017-12-10T15:55:36.028Z,7.80
2017-12-10T15:58:03.465Z,6.55
2017-12-10T16:00:31.288Z,7.85
2017-12-10T16:02:58.713Z,7.97
2017-12-10T16:05:26.158Z,9.27
2017-12-10T16:07:53.580Z,6.68
2017-12-10T16:10:21.404Z,8.35
2017-12-10T16:12:48.844Z,8.40
2017-12-10T16:15:16.276Z,7.37
2017-12-10T16:17:43.705Z,8.48
2017-12-10T16:20:11.728Z,20.60
2017-12-10T16:22:39.157Z,7.50
2017-12-10T16:25:06.629Z,7.55
2017-12-10T16:27:34.124Z,7.80
2017-12-10T16:30:01.557Z,7.00
2017-12-10T16:32:29.004Z,6.78
2017-12-10T16:34:56.436Z,6.93
2017-12-10T16:37:23.864Z,6.90
2017-12-10T16:39:51.696Z,7.10
2017-12-10T16:42:19.122Z,6.85
2017-12-10T16:44:46.544Z,6.45
2017-12-10T16:47:14.392Z,6.70
2017-12-10T16:49:41.812Z,6.12
2017-12-10T16:52:09.255Z,6.68
2017-12-10T16:54:37.116Z,6.28
2017-12-10T16:57:04.553Z,7.15
2017-12-10T16:59:31.973Z,6.00
2017-12-10T17:01:59.408Z,7.55
2017-12-10T17:04:26.836Z,7.43
2017-12-10T17:06:54.308Z,7.28
2017-12-10T17:09:21.760Z,7.40
2017-12-10T17:11:49.194Z,6.40
2017-12-10T17:14:16.621Z,6.85
2017-12-10T17:16:44.460Z,6.85
2017-12-10T17:19:11.888Z,7.00
2017-12-10T17:21:39.337Z,7.25
2017-12-10T17:24:06.780Z,7.37
2017-12-10T17:26:34.220Z,8.35
2017-12-10T17:29:01.637Z,7.30
2017-12-10T17:31:29.076Z,7.65
2017-12-10T17:33:56.509Z,7.60
2017-12-10T17:36:24.055Z,7.35
2017-12-10T17:38:51.520Z,8.38
2017-12-10T17:41:18.943Z,6.60
2017-12-10T17:43:46.531Z,6.80
2017-12-10T17:46:13.956Z,7.90
2017-12-10T17:48:41.380Z,7.30
2017-12-10T17:51:09.100Z,7.70
2017-12-10T17:53:36.534Z,7.40
2017-12-10T17:56:03.965Z,7.65
2017-12-10T17:58:32.004Z,7.20
2017-12-10T18:00:59.430Z,6.90
2017-12-10T18:03:26.864Z,7.45
2017-12-10T18:05:54.300Z,7.70
2017-12-10T18:08:22.129Z,8.70
2017-12-10T18:10:49.553Z,7.95
2017-12-10T18:13:17.320Z,8.07
2017-12-10T18:15:44.760Z,7.45
2017-12-10T18:18:12.189Z,7.37
2017-12-10T18:20:40.204Z,7.07
2017-12-10T18:23:07.637Z,8.23
2017-12-10T18:25:35.065Z,6.93
2017-12-10T18:28:02.902Z,7.18
2017-12-10T18:30:30.336Z,7.18
2017-12-10T18:32:57.775Z,6.80
2017-12-10T18:35:25.196Z,6.35
2017-12-10T18:37:53.035Z,6.47
2017-12-10T18:40:20.464Z,6.40
2017-12-10T18:42:47.889Z,6.90
2017-12-10T18:45:15.320Z,5.47
2017-12-10T18:47:43.441Z,5.57
2017-12-10T18:50:10.864Z,6.03
2017-12-10T18:52:38.290Z,5.15
2017-12-10T18:55:05.741Z,5.55
2017-12-10T18:57:33.165Z,5.53
2017-12-10T19:00:00.592Z,5.35
2017-12-10T19:02:28.032Z,5.72
2017-12-10T19:04:55.456Z,5.10
2017-12-10T19:07:22.884Z,5.72
2017-12-10T19:09:50.318Z,5.37
2017-12-10T19:12:17.749Z,5.82
2017-12-10T19:14:45.240Z,5.75
2017-12-10T19:17:12.609Z,5.82
2017-12-10T19:19:40.041Z,6.03
2017-12-10T19:22:07.530Z,6.65
2017-12-10T19:24:34.946Z,6.95
2017-12-10T19:27:02.365Z,6.60
2017-12-10T19:29:30.212Z,8.32
2017-12-10T19:31:57.644Z,6.75
2017-12-10T19:34:25.074Z,6.00
2017-12-10T19:36:52.516Z,6.00
2017-12-10T19:39:19.945Z,5.53
2017-12-10T19:41:47.768Z,6.55
2017-12-10T19:44:15.522Z,5.87
2017-12-10T19:46:42.952Z,6.35
2017-12-10T19:49:10.372Z,5.75
2017-12-10T19:51:38.208Z,8.68
2017-12-10T19:54:05.641Z,6.32
2017-12-10T19:56:33.068Z,6.00
2017-12-10T19:59:00.513Z,6.18
2017-12-10T20:01:28.336Z,6.07
2017-12-10T20:04:00.680Z,6.80
2017-12-10T20:06:28.113Z,6.00
2017-12-10T20:08:55.536Z,6.72
2017-12-10T20:11:22.960Z,6.50
2017-12-10T20:13:50.612Z,7.32
2017-12-10T20:16:18.040Z,6.20
2017-12-10T20:18:45.460Z,6.22
2017-12-10T20:21:12.887Z,6.55
2017-12-10T20:23:40.312Z,5.87
2017-12-10T20:26:07.802Z,6.53
2017-12-10T20:28:35.230Z,6.62
2017-12-10T20:31:02.686Z,6.28
2017-12-10T20:33:30.358Z,6.93
2017-12-10T20:35:57.813Z,6.22
2017-12-10T20:38:25.237Z,5.45
2017-12-10T20:40:53.024Z,5.80
2017-12-10T20:43:20.488Z,6.85
2017-12-10T20:45:47.917Z,5.80
2017-12-10T20:48:15.349Z,6.90
2017-12-10T20:50:43.356Z,5.45
2017-12-10T20:53:10.789Z,6.18
2017-12-10T20:55:38.208Z,5.90
2017-12-10T20:58:05.660Z,6.95
2017-12-10T21:00:33.085Z,6.20
2017-12-10T21:03:00.525Z,7.15
2017-12-10T21:05:27.951Z,6.40
2017-12-10T21:07:55.773Z,6.22
2017-12-10T21:10:23.221Z,7.35
2017-12-10T21:12:50.650Z,6.62
2017-12-10T21:15:18.071Z,6.53
2017-12-10T21:17:45.935Z,6.15
2017-12-10T21:20:13.809Z,9.55
2017-12-10T21:22:41.189Z,7.55
2017-12-10T21:25:08.621Z,6.70
2017-12-10T21:27:36.111Z,6.55
2017-12-10T21:30:03.537Z,6.80
2017-12-10T21:32:31.067Z,6.70
2017-12-10T21:34:58.899Z,6.75
2017-12-10T21:37:26.316Z,7.12
2017-12-10T21:39:53.762Z,7.55
2017-12-10T21:42:21.184Z,7.47
2017-12-10T21:44:48.608Z,6.57
2017-12-10T21:47:16.052Z,7.50
2017-12-10T21:49:43.485Z,7.43
2017-12-10T21:52:10.908Z,7.15
2017-12-10T21:54:38.728Z,7.43
2017-12-10T21:57:06.160Z,7.87
2017-12-10T21:59:33.597Z,7.43
2017-12-10T22:02:01.426Z,7.40
2017-12-10T22:04:28.857Z,11.55
2017-12-10T22:06:56.299Z,7.50
2017-12-10T22:09:23.724Z,9.25
2017-12-10T22:11:51.549Z,7.43
2017-12-10T22:14:18.992Z,7.37
2017-12-10T22:16:46.427Z,8.65
2017-12-10T22:19:13.849Z,6.82
2017-12-10T22:21:41.708Z,6.90
2017-12-10T22:24:09.562Z,7.37
2017-12-10T22:26:36.992Z,7.90
2017-12-10T22:29:04.436Z,7.07
2017-12-10T22:31:31.874Z,8.23
2017-12-10T22:33:59.305Z,8.02
2017-12-10T22:36:27.305Z,8.10
2017-12-10T22:38:54.755Z,7.82
2017-12-10T22:41:22.184Z,8.20
2017-12-10T22:43:49.640Z,7.87
2017-12-10T22:46:17.068Z,8.60
2017-12-10T22:48:44.489Z,8.30
2017-12-10T22:51:12.172Z,8.90
2017-12-10T22:53:39.604Z,8.27
2017-12-10T22:56:07.032Z,8.60
2017-12-10T22:58:34.472Z,9.30
2017-12-10T23:01:01.903Z,9.45
2017-12-10T23:03:29.328Z,9.18
2017-12-10T23:05:56.769Z,9.40
2017-12-10T23:08:24.192Z,9.43
2017-12-10T23:10:51.617Z,9.23
2017-12-10T23:13:19.047Z,9.20
2017-12-10T23:15:46.477Z,8.25
2017-12-10T23:18:13.912Z,8.75
2017-12-10T23:20:41.341Z,8.98
2017-12-10T23:23:09.170Z,10.40
2017-12-10T23:25:36.916Z,8.88
2017-12-10T23:28:04.372Z,9.23
2017-12-10T23:30:31.804Z,9.43
2017-12-10T23:32:59.352Z,9.48
2017-12-10T23:35:27.177Z,9.60
2017-12-10T23:37:54.602Z,9.30
2017-12-10T23:40:22.053Z,13.98
2017-12-10T23:42:49.479Z,12.15
2017-12-10T23:45:16.913Z,9.20
2017-12-10T23:47:44.362Z,9.60
2017-12-10T23:50:11.784Z,9.55
2017-12-10T23:52:39.212Z,9.45
2017-12-10T23:55:07.509Z,10.10
2017-12-10T23:57:34.936Z,8.50
